sensor_id;sensor_type;location;lat;lon;timestamp;pressure;altitude;pressure_sealevel;temperature;humidity
37066;BME280;22981;43.080;25.550;2023-02-13T00:00:34;101634.61;;;-0.81;73.08
37066;BME280;22981;43.080;25.550;2023-02-13T00:03:02;101637.77;;;-0.90;73.21
37066;BME280;22981;43.080;25.550;2023-02-13T00:05:30;101635.62;;;-0.98;73.32
37066;BME280;22981;43.080;25.550;2023-02-13T00:07:58;101631.77;;;-1.07;73.47
37066;BME280;22981;43.080;25.550;2023-02-13T00:10:25;101627.80;;;-1.14;73.59
37066;BME280;22981;43.080;25.550;2023-02-13T00:12:53;101627.50;;;-1.16;73.70
37066;BME280;22981;43.080;25.550;2023-02-13T00:15:20;101627.90;;;-1.15;73.71
37066;BME280;22981;43.080;25.550;2023-02-13T00:17:48;101632.28;;;-1.16;73.62
37066;BME280;22981;43.080;25.550;2023-02-13T00:20:15;101631.91;;;-1.17;73.61
37066;BME280;22981;43.080;25.550;2023-02-13T00:22:43;101642.53;;;-1.18;73.57
37066;BME280;22981;43.080;25.550;2023-02-13T00:25:11;101640.44;;;-1.20;73.60
37066;BME280;22981;43.080;25.550;2023-02-13T00:27:38;101642.23;;;-1.21;73.52
37066;BME280;22981;43.080;25.550;2023-02-13T00:30:07;101655.94;;;-1.23;73.53
37066;BME280;22981;43.080;25.550;2023-02-13T00:32:34;101656.11;;;-1.26;73.53
37066;BME280;22981;43.080;25.550;2023-02-13T00:35:02;101653.11;;;-1.27;73.50
37066;BME280;22981;43.080;25.550;2023-02-13T00:37:30;101659.75;;;-1.29;73.51
37066;BME280;22981;43.080;25.550;2023-02-13T00:39:57;101655.44;;;-1.30;73.52
37066;BME280;22981;43.080;25.550;2023-02-13T00:42:25;101662.85;;;-1.29;73.47
37066;BME280;22981;43.080;25.550;2023-02-13T00:44:53;101661.73;;;-1.32;73.47
37066;BME280;22981;43.080;25.550;2023-02-13T00:47:21;101660.22;;;-1.36;73.51
37066;BME280;22981;43.080;25.550;2023-02-13T00:49:48;101661.61;;;-1.38;73.53
37066;BME280;22981;43.080;25.550;2023-02-13T00:52:16;101655.98;;;-1.39;73.52
37066;BME280;22981;43.080;25.550;2023-02-13T00:54:43;101654.46;;;-1.43;73.45
37066;BME280;22981;43.080;25.550;2023-02-13T00:57:12;101657.26;;;-1.46;73.50
37066;BME280;22981;43.080;25.550;2023-02-13T00:59:40;101669.28;;;-1.49;73.56
37066;BME280;22981;43.080;25.550;2023-02-13T01:02:07;101667.13;;;-1.49;73.57
37066;BME280;22981;43.080;25.550;2023-02-13T01:04:35;101667.97;;;-1.49;73.58
37066;BME280;22981;43.080;25.550;2023-02-13T01:07:02;101668.88;;;-1.50;73.54
37066;BME280;22981;43.080;25.550;2023-02-13T01:09:30;101664.19;;;-1.52;73.51
37066;BME280;22981;43.080;25.550;2023-02-13T01:11:58;101662.03;;;-1.53;73.49
37066;BME280;22981;43.080;25.550;2023-02-13T01:14:25;101668.23;;;-1.54;73.43
37066;BME280;22981;43.080;25.550;2023-02-13T01:16:53;101668.94;;;-1.59;73.47
37066;BME280;22981;43.080;25.550;2023-02-13T01:19:20;101662.47;;;-1.60;73.54
37066;BME280;22981;43.080;25.550;2023-02-13T01:21:48;101665.40;;;-1.58;73.51
37066;BME280;22981;43.080;25.550;2023-02-13T01:24:15;101663.68;;;-1.59;73.45
37066;BME280;22981;43.080;25.550;2023-02-13T01:26:43;101658.16;;;-1.61;73.39
37066;BME280;22981;43.080;25.550;2023-02-13T01:29:12;101660.95;;;-1.64;73.40
37066;BME280;22981;43.080;25.550;2023-02-13T01:31:40;101660.27;;;-1.68;73.37
37066;BME280;22981;43.080;25.550;2023-02-13T01:34:08;101660.84;;;-1.70;73.38
37066;BME280;22981;43.080;25.550;2023-02-13T01:36:35;101665.72;;;-1.71;73.38
37066;BME280;22981;43.080;25.550;2023-02-13T01:39:03;101669.25;;;-1.72;73.33
37066;BME280;22981;43.080;25.550;2023-02-13T01:41:30;101665.00;;;-1.82;73.37
37066;BME280;22981;43.080;25.550;2023-02-13T01:43:59;101670.39;;;-1.92;73.46
37066;BME280;22981;43.080;25.550;2023-02-13T01:46:32;101672.59;;;-2.00;73.60
37066;BME280;22981;43.080;25.550;2023-02-13T01:49:04;101673.53;;;-2.01;73.65
37066;BME280;22981;43.080;25.550;2023-02-13T01:51:32;101673.80;;;-1.98;73.60
37066;BME280;22981;43.080;25.550;2023-02-13T01:54:03;101674.37;;;-2.00;73.53
37066;BME280;22981;43.080;25.550;2023-02-13T01:56:33;101671.06;;;-2.04;73.50
37066;BME280;22981;43.080;25.550;2023-02-13T01:59:04;101677.31;;;-2.07;73.51
37066;BME280;22981;43.080;25.550;2023-02-13T02:01:32;101675.16;;;-2.07;73.54
37066;BME280;22981;43.080;25.550;2023-02-13T02:04:35;101672.53;;;-2.07;73.48
37066;BME280;22981;43.080;25.550;2023-02-13T02:06:43;101671.31;;;-2.09;73.42
37066;BME280;22981;43.080;25.550;2023-02-13T02:09:15;101670.47;;;-2.09;73.40
37066;BME280;22981;43.080;25.550;2023-02-13T02:12:06;101677.04;;;-2.09;73.34
37066;BME280;22981;43.080;25.550;2023-02-13T02:14:33;101680.56;;;-2.10;73.30
37066;BME280;22981;43.080;25.550;2023-02-13T02:17:01;101674.48;;;-2.11;73.24
37066;BME280;22981;43.080;25.550;2023-02-13T02:19:41;101677.95;;;-2.10;73.17
37066;BME280;22981;43.080;25.550;2023-02-13T02:22:30;101671.10;;;-2.13;73.19
37066;BME280;22981;43.080;25.550;2023-02-13T02:25:13;101673.73;;;-2.13;73.20
37066;BME280;22981;43.080;25.550;2023-02-13T02:30:38;101668.55;;;-2.14;73.16
37066;BME280;22981;43.080;25.550;2023-02-13T02:38:39;101664.64;;;-2.23;73.22
37066;BME280;22981;43.080;25.550;2023-02-13T02:41:07;101670.45;;;-2.25;73.18
37066;BME280;22981;43.080;25.550;2023-02-13T02:44:03;101668.08;;;-2.30;73.16
37066;BME280;22981;43.080;25.550;2023-02-13T02:46:28;101673.64;;;-2.36;73.18
37066;BME280;22981;43.080;25.550;2023-02-13T02:49:06;101668.27;;;-2.41;73.17
37066;BME280;22981;43.080;25.550;2023-02-13T02:51:59;101666.77;;;-2.54;73.25
37066;BME280;22981;43.080;25.550;2023-02-13T02:54:49;101662.62;;;-2.67;73.33
37066;BME280;22981;43.080;25.550;2023-02-13T02:57:37;101668.20;;;-2.73;73.52
37066;BME280;22981;43.080;25.550;2023-02-13T03:00:23;101664.50;;;-2.69;73.51
37066;BME280;22981;43.080;25.550;2023-02-13T03:03:12;101666.09;;;-2.66;73.35
37066;BME280;22981;43.080;25.550;2023-02-13T03:05:58;101681.59;;;-2.62;73.22
37066;BME280;22981;43.080;25.550;2023-02-13T03:08:43;101678.44;;;-2.60;73.05
37066;BME280;22981;43.080;25.550;2023-02-13T03:11:28;101681.34;;;-2.57;72.96
37066;BME280;22981;43.080;25.550;2023-02-13T03:13:59;101685.22;;;-2.56;72.94
37066;BME280;22981;43.080;25.550;2023-02-13T03:16:28;101681.19;;;-2.54;72.86
37066;BME280;22981;43.080;25.550;2023-02-13T03:19:24;101680.19;;;-2.52;72.76
37066;BME280;22981;43.080;25.550;2023-02-13T03:22:30;101673.17;;;-2.51;72.69
37066;BME280;22981;43.080;25.550;2023-02-13T03:25:08;101663.14;;;-2.52;72.71
37066;BME280;22981;43.080;25.550;2023-02-13T03:27:54;101656.59;;;-2.52;72.75
37066;BME280;22981;43.080;25.550;2023-02-13T03:38:58;101642.63;;;-2.52;72.67
37066;BME280;22981;43.080;25.550;2023-02-13T03:41:36;101639.32;;;-2.56;72.77
37066;BME280;22981;43.080;25.550;2023-02-13T03:44:10;101634.92;;;-2.55;72.87
37066;BME280;22981;43.080;25.550;2023-02-13T03:46:37;101640.07;;;-2.54;72.87
37066;BME280;22981;43.080;25.550;2023-02-13T03:49:06;101637.79;;;-2.60;72.74
37066;BME280;22981;43.080;25.550;2023-02-13T03:51:58;101632.88;;;-2.74;72.73
37066;BME280;22981;43.080;25.550;2023-02-13T03:54:37;101622.97;;;-2.85;72.87
37066;BME280;22981;43.080;25.550;2023-02-13T03:57:21;101629.45;;;-2.92;73.07
37066;BME280;22981;43.080;25.550;2023-02-13T04:00:10;101632.54;;;-2.93;73.11
37066;BME280;22981;43.080;25.550;2023-02-13T04:02:54;101636.94;;;-2.93;73.03
37066;BME280;22981;43.080;25.550;2023-02-13T04:05:24;101640.87;;;-2.93;73.03
37066;BME280;22981;43.080;25.550;2023-02-13T04:07:49;101639.56;;;-2.93;73.03
37066;BME280;22981;43.080;25.550;2023-02-13T04:10:18;101646.48;;;-2.92;73.00
37066;BME280;22981;43.080;25.550;2023-02-13T04:15:51;101658.44;;;-3.04;72.82
37066;BME280;22981;43.080;25.550;2023-02-13T04:18:24;101654.23;;;-3.15;73.13
37066;BME280;22981;43.080;25.550;2023-02-13T04:20:52;101651.52;;;-3.14;73.29
37066;BME280;22981;43.080;25.550;2023-02-13T04:23:19;101656.52;;;-3.09;73.33
37066;BME280;22981;43.080;25.550;2023-02-13T04:25:49;101662.46;;;-3.06;73.30
37066;BME280;22981;43.080;25.550;2023-02-13T04:28:17;101666.70;;;-3.03;73.24
37066;BME280;22981;43.080;25.550;2023-02-13T04:30:45;101666.95;;;-3.08;73.31
37066;BME280;22981;43.080;25.550;2023-02-13T04:33:12;101663.69;;;-3.13;73.58
37066;BME280;22981;43.080;25.550;2023-02-13T04:35:40;101660.08;;;-3.10;73.72
37066;BME280;22981;43.080;25.550;2023-02-13T04:38:07;101665.08;;;-3.06;73.72
37066;BME280;22981;43.080;25.550;2023-02-13T04:40:35;101662.92;;;-3.06;73.78
37066;BME280;22981;43.080;25.550;2023-02-13T04:43:03;101664.55;;;-3.04;73.88
37066;BME280;22981;43.080;25.550;2023-02-13T04:45:30;101664.09;;;-3.03;73.83
37066;BME280;22981;43.080;25.550;2023-02-13T04:47:58;101664.55;;;-3.04;73.94
37066;BME280;22981;43.080;25.550;2023-02-13T04:50:25;101669.62;;;-3.00;74.01
37066;BME280;22981;43.080;25.550;2023-02-13T04:52:54;101660.77;;;-2.98;73.96
37066;BME280;22981;43.080;25.550;2023-02-13T04:55:23;101660.67;;;-2.96;73.90
37066;BME280;22981;43.080;25.550;2023-02-13T04:57:52;101666.70;;;-2.94;73.91
37066;BME280;22981;43.080;25.550;2023-02-13T05:00:21;101670.63;;;-2.94;73.84
37066;BME280;22981;43.080;25.550;2023-02-13T05:02:49;101672.65;;;-2.99;73.97
37066;BME280;22981;43.080;25.550;2023-02-13T05:05:17;101680.05;;;-3.08;74.02
37066;BME280;22981;43.080;25.550;2023-02-13T05:07:45;101672.19;;;-3.16;74.17
37066;BME280;22981;43.080;25.550;2023-02-13T05:10:13;101676.27;;;-3.28;74.29
37066;BME280;22981;43.080;25.550;2023-02-13T05:12:40;101675.42;;;-3.37;74.64
37066;BME280;22981;43.080;25.550;2023-02-13T05:15:08;101680.89;;;-3.33;74.80
37066;BME280;22981;43.080;25.550;2023-02-13T05:17:36;101682.44;;;-3.29;74.82
37066;BME280;22981;43.080;25.550;2023-02-13T05:20:03;101679.27;;;-3.27;74.82
37066;BME280;22981;43.080;25.550;2023-02-13T05:22:31;101679.59;;;-3.24;74.78
37066;BME280;22981;43.080;25.550;2023-02-13T05:25:16;101675.66;;;-3.24;74.80
37066;BME280;22981;43.080;25.550;2023-02-13T05:27:44;101676.79;;;-3.21;74.81
37066;BME280;22981;43.080;25.550;2023-02-13T05:30:12;101683.89;;;-3.23;74.73
37066;BME280;22981;43.080;25.550;2023-02-13T05:32:40;101683.52;;;-3.24;74.91
37066;BME280;22981;43.080;25.550;2023-02-13T05:35:08;101681.13;;;-3.20;74.97
37066;BME280;22981;43.080;25.550;2023-02-13T05:37:36;101684.83;;;-3.16;74.94
37066;BME280;22981;43.080;25.550;2023-02-13T05:40:03;101680.66;;;-3.11;74.91
37066;BME280;22981;43.080;25.550;2023-02-13T05:42:31;101689.69;;;-3.08;74.84
37066;BME280;22981;43.080;25.550;2023-02-13T05:44:59;101703.55;;;-3.06;74.85
37066;BME280;22981;43.080;25.550;2023-02-13T05:47:26;101701.30;;;-3.05;74.77
37066;BME280;22981;43.080;25.550;2023-02-13T05:49:54;101712.71;;;-3.06;74.76
37066;BME280;22981;43.080;25.550;2023-02-13T05:52:21;101707.47;;;-3.06;74.79
37066;BME280;22981;43.080;25.550;2023-02-13T05:54:49;101707.94;;;-3.07;74.77
37066;BME280;22981;43.080;25.550;2023-02-13T05:57:17;101707.09;;;-3.07;74.74
37066;BME280;22981;43.080;25.550;2023-02-13T05:59:44;101708.47;;;-3.09;74.74
37066;BME280;22981;43.080;25.550;2023-02-13T06:02:12;101712.63;;;-3.05;74.74
37066;BME280;22981;43.080;25.550;2023-02-13T06:04:39;101713.79;;;-3.02;74.67
37066;BME280;22981;43.080;25.550;2023-02-13T06:07:07;101709.34;;;-2.99;74.63
37066;BME280;22981;43.080;25.550;2023-02-13T06:09:34;101719.59;;;-3.04;74.61
37066;BME280;22981;43.080;25.550;2023-02-13T06:12:02;101713.03;;;-3.12;74.66
37066;BME280;22981;43.080;25.550;2023-02-13T06:14:29;101714.16;;;-3.18;74.83
37066;BME280;22981;43.080;25.550;2023-02-13T06:16:57;101721.19;;;-3.18;75.03
37066;BME280;22981;43.080;25.550;2023-02-13T06:19:26;101717.02;;;-3.14;75.10
37066;BME280;22981;43.080;25.550;2023-02-13T06:21:54;101711.64;;;-3.11;75.07
37066;BME280;22981;43.080;25.550;2023-02-13T06:24:21;101720.58;;;-3.06;75.05
37066;BME280;22981;43.080;25.550;2023-02-13T06:26:49;101720.11;;;-3.06;75.07
37066;BME280;22981;43.080;25.550;2023-02-13T06:29:16;101717.58;;;-3.07;75.13
37066;BME280;22981;43.080;25.550;2023-02-13T06:31:44;101723.95;;;-3.04;75.19
37066;BME280;22981;43.080;25.550;2023-02-13T06:34:11;101720.81;;;-3.02;75.13
37066;BME280;22981;43.080;25.550;2023-02-13T06:36:39;101714.95;;;-2.98;75.08
37066;BME280;22981;43.080;25.550;2023-02-13T06:39:09;101724.27;;;-3.02;75.00
37066;BME280;22981;43.080;25.550;2023-02-13T06:41:37;101726.66;;;-3.06;75.03
37066;BME280;22981;43.080;25.550;2023-02-13T06:44:04;101725.91;;;-3.08;75.12
37066;BME280;22981;43.080;25.550;2023-02-13T06:46:33;101726.20;;;-3.05;75.20
37066;BME280;22981;43.080;25.550;2023-02-13T06:49:00;101726.58;;;-3.04;75.31
37066;BME280;22981;43.080;25.550;2023-02-13T06:51:28;101733.21;;;-2.97;75.27
37066;BME280;22981;43.080;25.550;2023-02-13T06:53:56;101726.42;;;-2.92;75.25
37066;BME280;22981;43.080;25.550;2023-02-13T06:56:31;101728.66;;;-2.85;75.24
37066;BME280;22981;43.080;25.550;2023-02-13T06:59:01;101719.62;;;-2.70;75.18
37066;BME280;22981;43.080;25.550;2023-02-13T07:03:58;101727.11;;;-2.71;74.92
37066;BME280;22981;43.080;25.550;2023-02-13T07:06:27;101726.96;;;-2.68;75.00
37066;BME280;22981;43.080;25.550;2023-02-13T07:08:54;101727.33;;;-2.59;74.98
37066;BME280;22981;43.080;25.550;2023-02-13T07:11:23;101724.91;;;-2.46;74.90
37066;BME280;22981;43.080;25.550;2023-02-13T07:13:51;101726.11;;;-2.36;74.77
37066;BME280;22981;43.080;25.550;2023-02-13T07:16:19;101730.02;;;-2.27;74.63
37066;BME280;22981;43.080;25.550;2023-02-13T07:18:47;101730.09;;;-2.20;74.60
37066;BME280;22981;43.080;25.550;2023-02-13T07:21:14;101719.03;;;-2.09;74.51
37066;BME280;22981;43.080;25.550;2023-02-13T07:23:42;101720.31;;;-2.00;74.35
37066;BME280;22981;43.080;25.550;2023-02-13T07:26:09;101722.27;;;-1.88;74.34
37066;BME280;22981;43.080;25.550;2023-02-13T07:28:37;101715.20;;;-1.72;74.18
37066;BME280;22981;43.080;25.550;2023-02-13T07:31:05;101713.99;;;-1.58;73.95
37066;BME280;22981;43.080;25.550;2023-02-13T07:33:33;101707.27;;;-1.47;73.82
37066;BME280;22981;43.080;25.550;2023-02-13T07:36:01;101702.80;;;-1.38;73.81
37066;BME280;22981;43.080;25.550;2023-02-13T07:38:29;101712.34;;;-1.21;73.74
37066;BME280;22981;43.080;25.550;2023-02-13T07:41:01;101708.34;;;-1.13;73.57
37066;BME280;22981;43.080;25.550;2023-02-13T07:43:29;101706.03;;;-0.96;73.48
37066;BME280;22981;43.080;25.550;2023-02-13T07:46:01;101707.00;;;-0.83;73.33
37066;BME280;22981;43.080;25.550;2023-02-13T07:48:29;101701.31;;;-0.68;73.22
37066;BME280;22981;43.080;25.550;2023-02-13T07:51:03;101703.58;;;-0.55;73.07
37066;BME280;22981;43.080;25.550;2023-02-13T07:53:30;101689.48;;;-0.46;72.83
37066;BME280;22981;43.080;25.550;2023-02-13T07:55:57;101695.68;;;-0.33;72.64
37066;BME280;22981;43.080;25.550;2023-02-13T07:58:25;101693.69;;;-0.15;72.59
37066;BME280;22981;43.080;25.550;2023-02-13T08:00:52;101692.70;;;0.07;72.34
37066;BME280;22981;43.080;25.550;2023-02-13T08:03:20;101686.35;;;0.31;71.97
37066;BME280;22981;43.080;25.550;2023-02-13T08:05:48;101685.91;;;0.52;71.70
37066;BME280;22981;43.080;25.550;2023-02-13T08:08:16;101684.02;;;0.73;71.29
37066;BME280;22981;43.080;25.550;2023-02-13T08:10:43;101686.45;;;0.89;70.92
37066;BME280;22981;43.080;25.550;2023-02-13T08:13:28;101681.99;;;0.97;70.65
37066;BME280;22981;43.080;25.550;2023-02-13T08:15:56;101684.45;;;1.13;70.67
37066;BME280;22981;43.080;25.550;2023-02-13T08:18:24;101678.66;;;1.33;70.37
37066;BME280;22981;43.080;25.550;2023-02-13T08:20:51;101671.02;;;1.54;70.10
37066;BME280;22981;43.080;25.550;2023-02-13T08:23:19;101678.45;;;1.80;69.81
37066;BME280;22981;43.080;25.550;2023-02-13T08:25:46;101674.92;;;1.92;69.13
37066;BME280;22981;43.080;25.550;2023-02-13T08:28:15;101671.88;;;2.04;68.93
37066;BME280;22981;43.080;25.550;2023-02-13T08:30:43;101661.68;;;2.23;68.97
37066;BME280;22981;43.080;25.550;2023-02-13T08:33:10;101655.66;;;2.45;68.68
37066;BME280;22981;43.080;25.550;2023-02-13T08:35:38;101654.55;;;2.72;68.32
37066;BME280;22981;43.080;25.550;2023-02-13T08:38:05;101650.41;;;2.92;67.81
37066;BME280;22981;43.080;25.550;2023-02-13T08:40:33;101650.33;;;3.05;66.96
37066;BME280;22981;43.080;25.550;2023-02-13T08:43:02;101641.31;;;3.18;67.00
37066;BME280;22981;43.080;25.550;2023-02-13T08:45:31;101641.70;;;3.31;66.65
37066;BME280;22981;43.080;25.550;2023-02-13T08:47:59;101636.02;;;3.63;66.62
37066;BME280;22981;43.080;25.550;2023-02-13T08:50:29;101640.45;;;3.96;65.71
37066;BME280;22981;43.080;25.550;2023-02-13T08:52:58;101635.30;;;4.33;64.46
37066;BME280;22981;43.080;25.550;2023-02-13T08:55:26;101635.30;;;4.33;64.46
37066;BME280;22981;43.080;25.550;2023-02-13T08:57:58;101635.59;;;4.50;64.49
37066;BME280;22981;43.080;25.550;2023-02-13T09:00:24;101620.40;;;4.94;63.53
37066;BME280;22981;43.080;25.550;2023-02-13T09:02:52;101620.40;;;4.94;63.53
37066;BME280;22981;43.080;25.550;2023-02-13T09:05:20;101633.33;;;5.09;62.88
37066;BME280;22981;43.080;25.550;2023-02-13T09:07:47;101622.89;;;5.17;62.41
37066;BME280;22981;43.080;25.550;2023-02-13T09:10:15;101622.42;;;5.33;61.86
37066;BME280;22981;43.080;25.550;2023-02-13T09:12:43;101625.78;;;5.50;61.65
37066;BME280;22981;43.080;25.550;2023-02-13T09:15:10;101617.34;;;5.75;61.05
37066;BME280;22981;43.080;25.550;2023-02-13T09:17:38;101620.36;;;5.92;60.35
37066;BME280;22981;43.080;25.550;2023-02-13T09:20:06;101615.82;;;6.08;59.87
37066;BME280;22981;43.080;25.550;2023-02-13T09:22:33;101607.99;;;6.16;59.54
37066;BME280;22981;43.080;25.550;2023-02-13T09:25:01;101610.27;;;6.30;59.79
37066;BME280;22981;43.080;25.550;2023-02-13T09:27:29;101613.97;;;6.52;59.29
37066;BME280;22981;43.080;25.550;2023-02-13T09:29:57;101607.53;;;6.65;58.57
37066;BME280;22981;43.080;25.550;2023-02-13T09:32:25;101595.25;;;6.77;58.45
37066;BME280;22981;43.080;25.550;2023-02-13T09:34:53;101597.92;;;7.01;58.08
37066;BME280;22981;43.080;25.550;2023-02-13T09:37:20;101588.84;;;7.17;57.56
37066;BME280;22981;43.080;25.550;2023-02-13T09:39:48;101587.91;;;7.36;57.33
37066;BME280;22981;43.080;25.550;2023-02-13T09:42:21;101581.12;;;7.51;56.60
37066;BME280;22981;43.080;25.550;2023-02-13T09:44:57;101585.32;;;7.68;56.30
37066;BME280;22981;43.080;25.550;2023-02-13T09:47:30;101579.91;;;7.91;56.01
37066;BME280;22981;43.080;25.550;2023-02-13T09:50:04;101575.33;;;8.15;55.51
37066;BME280;22981;43.080;25.550;2023-02-13T09:52:34;101574.55;;;8.37;55.23
37066;BME280;22981;43.080;25.550;2023-02-13T09:55:12;101563.11;;;8.44;55.21
37066;BME280;22981;43.080;25.550;2023-02-13T09:57:38;101561.30;;;8.71;54.29
37066;BME280;22981;43.080;25.550;2023-02-13T10:00:20;101547.95;;;8.71;53.97
37066;BME280;22981;43.080;25.550;2023-02-13T10:16:35;101528.94;;;9.34;53.18
37066;BME280;22981;43.080;25.550;2023-02-13T10:21:57;101521.88;;;9.88;52.43
37066;BME280;22981;43.080;25.550;2023-02-13T10:27:25;101515.23;;;10.16;51.12
37066;BME280;22981;43.080;25.550;2023-02-13T10:30:13;101507.89;;;10.31;50.92
37066;BME280;22981;43.080;25.550;2023-02-13T10:33:03;101507.56;;;10.34;50.39
37066;BME280;22981;43.080;25.550;2023-02-13T10:38:50;101500.87;;;10.46;50.62
37066;BME280;22981;43.080;25.550;2023-02-13T10:43:57;101493.49;;;10.40;50.51
37066;BME280;22981;43.080;25.550;2023-02-13T10:46:50;101496.17;;;10.36;50.28
37066;BME280;22981;43.080;25.550;2023-02-13T10:57:37;101480.27;;;10.50;50.16
37066;BME280;22981;43.080;25.550;2023-02-13T11:02:41;101469.89;;;10.47;50.20
37066;BME280;22981;43.080;25.550;2023-02-13T11:05:14;101468.37;;;10.53;50.17
37066;BME280;22981;43.080;25.550;2023-02-13T11:07:47;101466.70;;;10.48;50.09
37066;BME280;22981;43.080;25.550;2023-02-13T11:10:23;101459.17;;;10.51;50.22
37066;BME280;22981;43.080;25.550;2023-02-13T11:12:51;101462.02;;;10.62;50.10
37066;BME280;22981;43.080;25.550;2023-02-13T11:15:28;101455.97;;;10.64;49.80
37066;BME280;22981;43.080;25.550;2023-02-13T11:18:10;101452.28;;;10.61;49.62
37066;BME280;22981;43.080;25.550;2023-02-13T11:20:32;101452.62;;;10.66;49.49
37066;BME280;22981;43.080;25.550;2023-02-13T11:23:27;101452.77;;;10.73;49.37
37066;BME280;22981;43.080;25.550;2023-02-13T11:26:09;101447.39;;;10.77;49.49
37066;BME280;22981;43.080;25.550;2023-02-13T11:28:49;101439.52;;;10.84;49.55
37066;BME280;22981;43.080;25.550;2023-02-13T11:31:35;101443.13;;;10.95;49.52
37066;BME280;22981;43.080;25.550;2023-02-13T11:40:20;101436.16;;;10.82;48.70
37066;BME280;22981;43.080;25.550;2023-02-13T11:42:42;101434.98;;;10.84;48.94
37066;BME280;22981;43.080;25.550;2023-02-13T11:45:41;101432.30;;;10.88;49.08
37066;BME280;22981;43.080;25.550;2023-02-13T11:48:21;101422.90;;;10.92;49.02
37066;BME280;22981;43.080;25.550;2023-02-13T11:50:50;101427.52;;;11.07;49.07
37066;BME280;22981;43.080;25.550;2023-02-13T11:53:23;101420.30;;;11.07;48.93
37066;BME280;22981;43.080;25.550;2023-02-13T11:56:45;101418.16;;;11.02;49.29
37066;BME280;22981;43.080;25.550;2023-02-13T11:58:23;101407.75;;;11.03;49.25
37066;BME280;22981;43.080;25.550;2023-02-13T12:01:06;101405.26;;;11.02;49.52
37066;BME280;22981;43.080;25.550;2023-02-13T12:03:24;101401.91;;;11.00;49.55
37066;BME280;22981;43.080;25.550;2023-02-13T12:08:40;101398.44;;;11.26;49.30
37066;BME280;22981;43.080;25.550;2023-02-13T12:11:20;101394.33;;;11.35;48.88
37066;BME280;22981;43.080;25.550;2023-02-13T12:13:39;101387.45;;;11.40;48.47
37066;BME280;22981;43.080;25.550;2023-02-13T12:16:13;101386.23;;;11.43;48.19
37066;BME280;22981;43.080;25.550;2023-02-13T12:18:44;101382.27;;;11.35;48.14
37066;BME280;22981;43.080;25.550;2023-02-13T12:24:07;101377.20;;;11.44;48.03
37066;BME280;22981;43.080;25.550;2023-02-13T12:26:37;101376.47;;;11.50;48.23
37066;BME280;22981;43.080;25.550;2023-02-13T12:31:49;101360.89;;;11.68;47.83
37066;BME280;22981;43.080;25.550;2023-02-13T12:37:41;101362.42;;;11.48;48.00
37066;BME280;22981;43.080;25.550;2023-02-13T12:45:52;101350.67;;;11.49;47.74
37066;BME280;22981;43.080;25.550;2023-02-13T12:48:31;101356.20;;;11.47;47.86
37066;BME280;22981;43.080;25.550;2023-02-13T12:51:15;101355.81;;;11.54;47.65
37066;BME280;22981;43.080;25.550;2023-02-13T12:53:59;101346.78;;;11.51;47.34
37066;BME280;22981;43.080;25.550;2023-02-13T12:59:57;101347.96;;;11.53;47.32
37066;BME280;22981;43.080;25.550;2023-02-13T13:08:36;101351.64;;;11.29;47.50
37066;BME280;22981;43.080;25.550;2023-02-13T13:19:12;101346.08;;;11.58;46.71
37066;BME280;22981;43.080;25.550;2023-02-13T13:21:54;101341.64;;;11.65;46.57
37066;BME280;22981;43.080;25.550;2023-02-13T13:24:33;101343.88;;;11.61;46.41
37066;BME280;22981;43.080;25.550;2023-02-13T13:27:01;101345.41;;;11.56;46.52
37066;BME280;22981;43.080;25.550;2023-02-13T13:29:45;101339.85;;;11.61;46.41
37066;BME280;22981;43.080;25.550;2023-02-13T13:32:14;101337.30;;;11.64;46.29
37066;BME280;22981;43.080;25.550;2023-02-13T13:34:41;101339.91;;;11.72;45.68
37066;BME280;22981;43.080;25.550;2023-02-13T13:37:29;101338.09;;;11.68;45.83
37066;BME280;22981;43.080;25.550;2023-02-13T13:40:00;101336.14;;;11.62;45.97
37066;BME280;22981;43.080;25.550;2023-02-13T13:42:42;101324.62;;;11.58;46.09
37066;BME280;22981;43.080;25.550;2023-02-13T13:50:39;101324.66;;;11.53;45.98
37066;BME280;22981;43.080;25.550;2023-02-13T13:53:17;101322.98;;;11.29;46.31
37066;BME280;22981;43.080;25.550;2023-02-13T14:01:29;101312.91;;;11.09;46.31
37066;BME280;22981;43.080;25.550;2023-02-13T14:03:58;101318.37;;;10.96;46.65
37066;BME280;22981;43.080;25.550;2023-02-13T14:09:37;101310.16;;;10.67;46.83
37066;BME280;22981;43.080;25.550;2023-02-13T14:14:58;101298.41;;;10.37;47.48
37066;BME280;22981;43.080;25.550;2023-02-13T14:20:25;101298.16;;;9.99;48.26
37066;BME280;22981;43.080;25.550;2023-02-13T14:22:51;101301.34;;;9.90;48.52
37066;BME280;22981;43.080;25.550;2023-02-13T14:25:26;101290.16;;;9.74;48.76
37066;BME280;22981;43.080;25.550;2023-02-13T14:28:02;101287.68;;;9.61;49.01
37066;BME280;22981;43.080;25.550;2023-02-13T14:30:33;101284.83;;;9.54;49.21
37066;BME280;22981;43.080;25.550;2023-02-13T14:33:05;101289.20;;;9.47;49.31
37066;BME280;22981;43.080;25.550;2023-02-13T14:35:36;101286.85;;;9.40;49.48
37066;BME280;22981;43.080;25.550;2023-02-13T14:38:06;101277.82;;;9.33;49.59
37066;BME280;22981;43.080;25.550;2023-02-13T14:40:45;101280.67;;;9.23;49.75
37066;BME280;22981;43.080;25.550;2023-02-13T14:46:10;101273.13;;;8.98;50.29
37066;BME280;22981;43.080;25.550;2023-02-13T14:48:40;101276.27;;;8.85;50.47
37066;BME280;22981;43.080;25.550;2023-02-13T14:51:20;101280.75;;;8.72;50.67
37066;BME280;22981;43.080;25.550;2023-02-13T14:53:53;101271.23;;;8.62;50.89
37066;BME280;22981;43.080;25.550;2023-02-13T14:56:19;101274.02;;;8.52;51.07
37066;BME280;22981;43.080;25.550;2023-02-13T15:01:41;101266.58;;;8.34;51.33
37066;BME280;22981;43.080;25.550;2023-02-13T15:04:11;101271.86;;;8.21;51.52
37066;BME280;22981;43.080;25.550;2023-02-13T15:06:43;101262.66;;;8.12;51.67
37066;BME280;22981;43.080;25.550;2023-02-13T15:09:30;101260.42;;;7.99;51.93